createdAt,value
2022-10-04T00:04:20.053Z,12.79
2022-10-04T00:09:23.768Z,12.98
2022-10-04T00:14:37.839Z,12.57
2022-10-04T00:19:42.521Z,12.89
2022-10-04T00:25:16.154Z,12.79
2022-10-04T00:30:25.177Z,12.87
2022-10-04T00:35:25.956Z,12.93
2022-10-04T00:40:36.711Z,12.64
2022-10-04T00:45:42.004Z,12.80
2022-10-04T00:50:52.925Z,12.78
2022-10-04T00:56:01.452Z,12.99
2022-10-04T01:01:04.894Z,12.64
2022-10-04T01:06:05.899Z,12.74
2022-10-04T01:11:12.506Z,12.77
2022-10-04T01:16:26.483Z,13.14
2022-10-04T01:21:34.395Z,12.64
2022-10-04T01:26:42.737Z,12.68
2022-10-04T01:31:50.730Z,12.69
2022-10-04T01:36:54.744Z,12.38
2022-10-04T01:42:02.057Z,12.49
2022-10-04T01:47:12.678Z,11.95
2022-10-04T01:52:54.914Z,12.18
2022-10-04T01:58:28.688Z,11.91
2022-10-04T02:03:42.544Z,12.02
2022-10-04T02:14:08.219Z,11.76
2022-10-04T02:19:11.468Z,11.83
2022-10-04T02:24:12.337Z,11.86
2022-10-04T02:29:14.523Z,11.71
2022-10-04T02:34:15.187Z,11.62
2022-10-04T02:39:35.120Z,11.59
2022-10-04T02:44:45.256Z,11.81
2022-10-04T02:50:09.800Z,11.84
2022-10-04T02:55:32.409Z,11.86
2022-10-04T03:00:35.890Z,11.67
2022-10-04T03:05:45.276Z,11.82
2022-10-04T03:10:49.765Z,11.65
2022-10-04T03:15:56.562Z,11.46
2022-10-04T03:20:57.620Z,11.41
2022-10-04T03:26:23.459Z,11.30
2022-10-04T03:31:27.081Z,11.44
2022-10-04T03:36:27.588Z,11.72
2022-10-04T03:41:27.738Z,11.83
2022-10-04T03:46:35.949Z,11.89
2022-10-04T03:51:35.498Z,11.84
2022-10-04T03:56:38.332Z,11.68
2022-10-04T04:01:48.510Z,11.90
2022-10-04T04:07:17.986Z,11.93
2022-10-04T04:12:20.808Z,11.75
2022-10-04T04:17:37.724Z,11.67
2022-10-04T04:22:37.511Z,11.90
2022-10-04T04:27:42.518Z,11.56
2022-10-04T04:32:47.925Z,11.72
2022-10-04T04:38:15.633Z,11.83
2022-10-04T04:43:25.575Z,11.82
2022-10-04T04:48:29.362Z,11.71
2022-10-04T04:53:34.574Z,11.49
2022-10-04T04:58:47.096Z,11.66
2022-10-04T05:03:49.269Z,11.69
2022-10-04T05:08:53.746Z,11.60
2022-10-04T05:14:08.793Z,11.41
2022-10-04T05:19:31.416Z,11.69
2022-10-04T05:24:44.246Z,11.61
2022-10-04T05:30:11.730Z,11.75
2022-10-04T05:35:23.182Z,11.98
2022-10-04T05:40:43.919Z,12.46
2022-10-04T05:45:45.659Z,12.34
2022-10-04T05:50:45.959Z,12.32
2022-10-04T05:56:19.299Z,12.31
2022-10-04T06:01:59.315Z,12.56
2022-10-04T06:07:21.797Z,12.59
2022-10-04T06:12:26.112Z,12.68
2022-10-04T06:18:02.207Z,12.91
2022-10-04T06:23:07.053Z,13.09
2022-10-04T06:28:47.359Z,13.03
2022-10-04T06:33:57.651Z,13.59
2022-10-04T06:39:33.076Z,13.26
2022-10-04T06:44:42.330Z,13.53
2022-10-04T06:50:07.844Z,13.57
2022-10-04T06:55:30.326Z,13.45
2022-10-04T07:00:33.414Z,13.23
2022-10-04T07:05:56.410Z,13.27
2022-10-04T07:11:06.523Z,13.32
2022-10-04T07:16:37.411Z,13.60
2022-10-04T07:21:48.702Z,14.11
2022-10-04T07:26:51.248Z,14.25
2022-10-04T07:31:54.599Z,14.66
2022-10-04T07:37:21.833Z,15.13
2022-10-04T07:48:20.047Z,15.42
2022-10-04T07:53:24.728Z,15.25
2022-10-04T07:58:43.315Z,15.58
2022-10-04T08:04:12.318Z,15.29
2022-10-04T08:09:45.738Z,15.06
2022-10-04T08:15:11.077Z,15.18
2022-10-04T08:20:22.506Z,15.51
2022-10-04T08:25:35.040Z,15.58
2022-10-04T08:31:00.618Z,15.69
2022-10-04T08:36:28.985Z,15.91
2022-10-04T08:41:48.490Z,16.08
2022-10-04T08:47:06.799Z,16.20
2022-10-04T08:52:30.639Z,16.20
2022-10-04T08:57:57.333Z,16.31
2022-10-04T09:03:14.304Z,16.30
2022-10-04T09:08:37.544Z,16.53
2022-10-04T09:13:49.431Z,16.50
2022-10-04T09:18:47.661Z,16.78
2022-10-04T09:23:58.521Z,16.91
2022-10-04T09:29:09.992Z,17.00
2022-10-04T09:34:51.813Z,16.94
2022-10-04T09:40:31.822Z,17.19
2022-10-04T09:46:04.050Z,17.36
2022-10-04T09:51:28.367Z,17.51
2022-10-04T09:57:04.195Z,17.65
2022-10-04T10:02:29.462Z,17.61
2022-10-04T10:07:59.861Z,17.70
2022-10-04T10:13:43.483Z,18.08
2022-10-04T10:19:07.566Z,18.43
2022-10-04T10:24:27.696Z,18.79
2022-10-04T10:29:56.126Z,18.86
2022-10-04T10:35:35.035Z,19.03
2022-10-04T10:41:02.435Z,19.05
2022-10-04T10:46:10.779Z,18.77
2022-10-04T10:51:43.848Z,19.08
2022-10-04T10:57:05.034Z,19.15
2022-10-04T11:02:49.561Z,19.38
2022-10-04T11:08:47.266Z,19.45
2022-10-04T11:13:57.320Z,19.74
2022-10-04T11:19:34.920Z,19.98
2022-10-04T11:25:12.715Z,20.04
2022-10-04T11:30:24.715Z,20.36
2022-10-04T11:35:55.776Z,20.33
2022-10-04T11:41:16.894Z,20.33
2022-10-04T11:46:36.424Z,20.19
2022-10-04T11:51:52.604Z,20.42
2022-10-04T11:57:29.041Z,20.25
2022-10-04T12:02:38.022Z,19.88
2022-10-04T12:08:09.815Z,19.72
2022-10-04T12:13:30.492Z,19.81
2022-10-04T12:18:53.976Z,19.77
2022-10-04T12:24:17.302Z,19.84
2022-10-04T12:29:51.963Z,19.96
2022-10-04T12:35:24.225Z,19.72
2022-10-04T12:40:24.790Z,19.65
2022-10-04T12:45:36.553Z,19.62
2022-10-04T12:50:46.628Z,19.63
2022-10-04T12:56:24.439Z,19.58
2022-10-04T13:01:34.564Z,19.69
2022-10-04T13:06:59.613Z,19.69
2022-10-04T13:12:10.603Z,20.11
2022-10-04T13:17:35.090Z,20.28
2022-10-04T13:22:57.301Z,20.08
2022-10-04T13:28:32.503Z,20.33
2022-10-04T13:33:30.813Z,20.12
2022-10-04T13:38:42.869Z,20.07
2022-10-04T13:43:53.690Z,20.12
2022-10-04T13:49:26.107Z,20.09
2022-10-04T13:54:57.332Z,19.91
2022-10-04T14:00:03.910Z,20.54
2022-10-04T14:05:27.624Z,21.63
2022-10-04T14:10:49.756Z,23.33
2022-10-04T14:15:51.320Z,23.13
2022-10-04T14:21:20.508Z,21.23
2022-10-04T14:26:44.637Z,20.09
2022-10-04T14:32:07.846Z,20.11
2022-10-04T14:37:26.218Z,20.01
2022-10-04T14:42:54.036Z,19.84
2022-10-04T14:48:08.242Z,19.77
2022-10-04T14:53:53.582Z,19.94
2022-10-04T14:58:54.252Z,19.91
2022-10-04T15:04:22.744Z,19.68
2022-10-04T15:09:57.896Z,19.22
2022-10-04T15:14:58.735Z,19.01
2022-10-04T15:20:29.894Z,18.48
2022-10-04T15:25:45.704Z,18.46
2022-10-04T15:30:57.467Z,18.07
2022-10-04T15:35:58.302Z,18.19
2022-10-04T15:41:44.110Z,18.08
2022-10-04T15:47:32.981Z,17.86
2022-10-04T15:53:05.597Z,17.42
2022-10-04T16:04:46.622Z,17.84
2022-10-04T16:09:49.569Z,17.87
2022-10-04T16:15:14.440Z,17.93
2022-10-04T16:20:24.786Z,17.95
2022-10-04T16:25:28.453Z,18.08
2022-10-04T16:30:29.669Z,17.96
2022-10-04T16:35:31.877Z,18.09
2022-10-04T16:40:48.066Z,17.93
2022-10-04T16:45:50.783Z,18.01
2022-10-04T16:51:04.727Z,17.99
2022-10-04T16:56:21.328Z,17.64
2022-10-04T17:01:26.348Z,17.73
2022-10-04T17:12:36.957Z,17.38
2022-10-04T17:17:48.759Z,16.87
2022-10-04T17:23:12.139Z,16.97
2022-10-04T17:34:50.852Z,16.79
2022-10-04T17:40:20.887Z,16.68
2022-10-04T17:45:33.942Z,16.77
2022-10-04T17:51:15.692Z,16.61
2022-10-04T17:56:14.413Z,16.18
2022-10-04T18:02:00.301Z,16.45
2022-10-04T18:07:28.636Z,16.56
2022-10-04T18:13:01.504Z,16.88
2022-10-04T18:19:13.736Z,16.87
2022-10-04T18:24:25.541Z,16.56
2022-10-04T18:29:55.335Z,16.89
2022-10-04T18:35:24.565Z,16.81
2022-10-04T18:40:25.561Z,16.46
2022-10-04T18:45:37.974Z,16.53
2022-10-04T18:50:56.391Z,16.59
2022-10-04T18:56:19.415Z,16.55
2022-10-04T19:02:03.267Z,16.72
2022-10-04T19:07:18.616Z,16.35
2022-10-04T19:12:34.990Z,16.37
2022-10-04T19:17:47.374Z,16.56
2022-10-04T19:23:24.906Z,16.20
2022-10-04T19:28:40.654Z,16.26
2022-10-04T19:34:32.696Z,15.89
2022-10-04T19:40:25.745Z,15.73
2022-10-04T19:45:34.018Z,15.85
2022-10-04T19:51:43.263Z,15.52
2022-10-04T19:57:08.949Z,15.63
2022-10-04T20:03:23.078Z,15.56
2022-10-04T20:08:51.366Z,15.28
2022-10-04T20:14:32.205Z,15.27
2022-10-04T20:19:59.163Z,14.93
2022-10-04T20:31:15.635Z,15.45
2022-10-04T20:42:40.237Z,15.35
2022-10-04T20:48:04.683Z,15.40
2022-10-04T20:53:40.614Z,15.01
2022-10-04T21:04:53.215Z,15.46
2022-10-04T21:11:09.168Z,15.21
2022-10-04T21:16:08.897Z,15.19
2022-10-04T21:21:17.563Z,15.20
2022-10-04T21:32:08.432Z,15.00
2022-10-04T21:37:16.968Z,15.16
2022-10-04T21:42:22.784Z,14.84
2022-10-04T21:47:43.527Z,14.84
2022-10-04T21:52:57.718Z,14.65
2022-10-04T21:58:22.393Z,14.57
2022-10-04T22:03:24.418Z,14.59
2022-10-04T22:08:36.559Z,14.38
2022-10-04T22:13:46.681Z,14.26
2022-10-04T22:18:54.064Z,14.19
2022-10-04T22:24:33.336Z,14.22
2022-10-04T22:29:39.974Z,13.72
2022-10-04T22:35:05.719Z,13.79
2022-10-04T22:40:18.179Z,13.66
2022-10-04T22:45:53.686Z,13.55
2022-10-04T22:51:04.637Z,13.39
2022-10-04T22:56:10.918Z,13.36
2022-10-04T23:01:27.773Z,13.60
2022-10-04T23:06:45.890Z,13.30
2022-10-04T23:11:56.894Z,13.39
2022-10-04T23:17:34.023Z,13.20
2022-10-04T23:23:26.015Z,13.19
2022-10-04T23:29:31.954Z,13.04
2022-10-04T23:34:52.988Z,12.90
2022-10-04T23:40:27.436Z,13.05
2022-10-04T23:45:32.212Z,12.77
2022-10-04T23:50:47.873Z,12.78
2022-10-04T23:55:49.294Z,12.83
